createdAt,value
2022-11-05T00:02:36.975Z,6.04
2022-11-05T00:05:22.994Z,6.03
2022-11-05T00:08:22.318Z,5.99
2022-11-05T00:10:50.981Z,6.04
2022-11-05T00:13:35.493Z,6.08
2022-11-05T00:16:22.441Z,6.08
2022-11-05T00:19:06.615Z,6.11
2022-11-05T00:21:52.706Z,6.16
2022-11-05T00:24:38.173Z,6.18
2022-11-05T00:27:10.249Z,6.26
2022-11-05T00:29:38.123Z,6.29
2022-11-05T00:32:07.552Z,6.31
2022-11-05T00:34:38.204Z,6.39
2022-11-05T00:37:06.337Z,6.45
2022-11-05T00:39:34.423Z,6.48
2022-11-05T00:42:19.689Z,6.50
2022-11-05T00:45:02.887Z,6.54
2022-11-05T00:47:51.096Z,6.57
2022-11-05T00:50:20.291Z,6.54
2022-11-05T00:53:00.633Z,6.54
2022-11-05T00:55:30.107Z,6.49
2022-11-05T00:57:58.755Z,6.53
2022-11-05T01:00:28.680Z,6.57
2022-11-05T01:03:01.037Z,6.56
2022-11-05T01:05:30.511Z,6.60
2022-11-05T01:07:58.976Z,6.64
2022-11-05T01:10:27.477Z,6.68
2022-11-05T01:12:55.608Z,6.72
2022-11-05T01:15:23.966Z,6.76
2022-11-05T01:17:52.475Z,6.76
2022-11-05T01:20:21.745Z,6.76
2022-11-05T01:22:49.675Z,6.79
2022-11-05T01:25:17.997Z,6.85
2022-11-05T01:27:45.953Z,6.87
2022-11-05T01:30:14.995Z,6.89
2022-11-05T01:32:45.686Z,6.87
2022-11-05T01:35:16.264Z,6.90
2022-11-05T01:37:48.703Z,6.87
2022-11-05T01:40:19.550Z,6.93
2022-11-05T01:42:47.678Z,6.96
2022-11-05T01:45:19.356Z,7.00
2022-11-05T01:47:58.093Z,7.04
2022-11-05T01:50:34.539Z,7.15
2022-11-05T01:53:11.182Z,7.23
2022-11-05T01:55:44.567Z,7.33
2022-11-05T01:58:17.358Z,7.45
2022-11-05T02:00:45.700Z,7.51
2022-11-05T02:03:16.790Z,7.53
2022-11-05T02:05:46.408Z,7.59
2022-11-05T02:08:26.090Z,7.66
2022-11-05T02:10:54.131Z,7.70
2022-11-05T02:13:22.007Z,7.75
2022-11-05T02:16:03.144Z,7.85
2022-11-05T02:18:42.484Z,7.88
2022-11-05T02:21:33.949Z,7.90
2022-11-05T02:24:42.449Z,7.91
2022-11-05T02:27:29.310Z,7.94
2022-11-05T02:30:13.514Z,8.01
2022-11-05T02:33:06.349Z,8.06
2022-11-05T02:36:09.528Z,8.12
2022-11-05T02:38:44.122Z,8.13
2022-11-05T02:41:23.847Z,8.16
2022-11-05T02:44:04.523Z,8.20
2022-11-05T02:46:42.734Z,8.24
2022-11-05T02:49:23.857Z,8.25
2022-11-05T02:51:57.898Z,8.28
2022-11-05T02:54:34.326Z,8.30
2022-11-05T02:57:04.963Z,8.26
2022-11-05T02:59:33.085Z,8.30
2022-11-05T03:02:03.206Z,8.30
2022-11-05T03:04:33.629Z,8.29
2022-11-05T03:07:23.880Z,8.27
2022-11-05T03:10:08.207Z,8.28
2022-11-05T03:12:46.031Z,8.30
2022-11-05T03:15:22.760Z,8.33
2022-11-05T03:18:02.299Z,8.37
2022-11-05T03:20:38.872Z,8.36
2022-11-05T03:23:13.220Z,8.36
2022-11-05T03:25:46.763Z,8.35
2022-11-05T03:28:16.035Z,8.34
2022-11-05T03:30:45.514Z,8.34
2022-11-05T03:33:18.607Z,8.34
2022-11-05T03:35:53.334Z,8.32
2022-11-05T03:38:26.362Z,8.34
2022-11-05T03:40:57.584Z,8.40
2022-11-05T03:43:32.493Z,8.42
2022-11-05T03:46:04.342Z,8.40
2022-11-05T03:48:34.148Z,8.38
2022-11-05T03:51:09.770Z,8.40
2022-11-05T03:53:43.232Z,8.40
2022-11-05T03:56:18.203Z,8.38
2022-11-05T03:58:47.843Z,8.33
2022-11-05T04:01:16.606Z,8.34
2022-11-05T04:03:44.625Z,8.34
2022-11-05T04:06:31.402Z,8.34
2022-11-05T04:09:16.576Z,8.36
2022-11-05T04:12:01.706Z,8.33
2022-11-05T04:14:29.621Z,8.43
2022-11-05T04:17:10.044Z,8.43
2022-11-05T04:19:56.609Z,8.37
2022-11-05T04:22:46.949Z,8.43
2022-11-05T04:25:16.306Z,8.48
2022-11-05T04:27:44.385Z,8.51
2022-11-05T04:30:19.179Z,8.54
2022-11-05T04:32:58.688Z,8.60
2022-11-05T04:35:27.765Z,8.59
2022-11-05T04:37:57.086Z,8.64
2022-11-05T04:40:25.619Z,8.67
2022-11-05T04:42:55.431Z,8.67
2022-11-05T04:45:23.774Z,8.70
2022-11-05T04:47:51.699Z,8.69
2022-11-05T04:50:19.675Z,8.73
2022-11-05T04:52:50.540Z,8.75
2022-11-05T04:55:19.911Z,8.74
2022-11-05T04:57:49.049Z,8.80
2022-11-05T05:00:17.368Z,8.82
2022-11-05T05:02:45.432Z,8.87
2022-11-05T05:05:14.306Z,8.88
2022-11-05T05:07:42.522Z,8.87
2022-11-05T05:10:12.073Z,8.92
2022-11-05T05:12:41.530Z,8.93
2022-11-05T05:15:09.788Z,8.94
2022-11-05T05:17:37.748Z,8.96
2022-11-05T05:20:23.477Z,8.97
2022-11-05T05:22:55.408Z,8.98
2022-11-05T05:25:23.741Z,8.96
2022-11-05T05:27:53.128Z,9.00
2022-11-05T05:30:21.404Z,9.00
2022-11-05T05:32:49.633Z,9.03
2022-11-05T05:35:17.629Z,9.02
2022-11-05T05:37:45.590Z,9.02
2022-11-05T05:40:13.556Z,9.06
2022-11-05T05:42:43.450Z,9.04
2022-11-05T05:45:14.046Z,9.03
2022-11-05T05:47:41.706Z,8.97
2022-11-05T05:50:10.067Z,9.03
2022-11-05T05:52:37.915Z,9.03
2022-11-05T05:55:06.455Z,9.07
2022-11-05T05:57:35.163Z,9.09
2022-11-05T06:00:03.286Z,9.11
2022-11-05T06:02:33.231Z,9.06
2022-11-05T06:05:01.228Z,9.06
2022-11-05T06:07:31.839Z,9.08
2022-11-05T06:10:03.926Z,9.09
2022-11-05T06:12:31.973Z,9.08
2022-11-05T06:14:59.856Z,9.09
2022-11-05T06:17:27.755Z,9.06
2022-11-05T06:19:57.073Z,9.07
2022-11-05T06:22:24.920Z,9.12
2022-11-05T06:24:52.865Z,9.12
2022-11-05T06:27:20.802Z,9.10
2022-11-05T06:29:48.700Z,9.09
2022-11-05T06:32:16.597Z,9.10
2022-11-05T06:34:44.439Z,9.10
2022-11-05T06:37:13.794Z,9.09
2022-11-05T06:39:41.677Z,9.06
2022-11-05T06:42:18.475Z,9.08
2022-11-05T06:44:47.110Z,9.10
2022-11-05T06:47:15.114Z,9.11
2022-11-05T06:49:43.047Z,9.10
2022-11-05T06:52:11.038Z,9.10
2022-11-05T06:54:40.870Z,9.09
2022-11-05T06:57:09.996Z,9.09
2022-11-05T06:59:41.317Z,9.07
2022-11-05T07:02:13.582Z,9.05
2022-11-05T07:04:41.988Z,9.06
2022-11-05T07:07:09.945Z,9.06
2022-11-05T07:09:43.227Z,9.07
2022-11-05T07:12:11.426Z,9.05
2022-11-05T07:14:39.402Z,9.03
2022-11-05T07:17:07.280Z,9.02
2022-11-05T07:19:35.163Z,9.02
2022-11-05T07:22:03.433Z,8.98
2022-11-05T07:24:31.316Z,9.00
2022-11-05T07:27:00.766Z,8.97
2022-11-05T07:29:28.751Z,9.00
2022-11-05T07:31:56.673Z,9.01
2022-11-05T07:34:24.691Z,9.03
2022-11-05T07:36:52.582Z,9.05
2022-11-05T07:39:21.161Z,9.04
2022-11-05T07:41:49.045Z,9.04
2022-11-05T07:44:18.268Z,9.05
2022-11-05T07:46:46.179Z,9.04
2022-11-05T07:49:14.548Z,9.08
2022-11-05T07:51:45.413Z,9.08
2022-11-05T07:54:13.294Z,9.08
2022-11-05T07:56:43.863Z,9.08
2022-11-05T07:59:11.758Z,9.08
2022-11-05T08:01:41.494Z,9.12
2022-11-05T08:04:09.576Z,9.14
2022-11-05T08:06:37.495Z,9.14
2022-11-05T08:09:05.518Z,9.16
2022-11-05T08:11:35.237Z,9.19
2022-11-05T08:14:03.141Z,9.22
2022-11-05T08:16:31.042Z,9.21
2022-11-05T08:19:00.779Z,9.22
2022-11-05T08:21:28.685Z,9.23
2022-11-05T08:23:56.545Z,9.25
2022-11-05T08:26:24.412Z,9.24
2022-11-05T08:28:52.298Z,9.25
2022-11-05T08:31:20.205Z,9.26
2022-11-05T08:33:48.058Z,9.29
2022-11-05T08:36:17.311Z,9.24
2022-11-05T08:38:45.223Z,9.28
2022-11-05T08:41:13.103Z,9.27
2022-11-05T08:43:42.201Z,9.28
2022-11-05T08:46:10.156Z,9.30
2022-11-05T08:48:38.239Z,9.30
2022-11-05T08:51:06.244Z,9.32
2022-11-05T08:53:37.815Z,9.34
2022-11-05T08:56:06.016Z,9.33
2022-11-05T08:58:33.970Z,9.36
2022-11-05T09:01:04.910Z,9.36
2022-11-05T09:03:33.392Z,9.38
2022-11-05T09:06:01.343Z,9.40
2022-11-05T09:08:29.226Z,9.40
2022-11-05T09:10:58.494Z,9.41
2022-11-05T09:13:27.187Z,9.42
2022-11-05T09:15:55.213Z,9.48
2022-11-05T09:18:23.154Z,9.48
2022-11-05T09:20:51.051Z,9.47
2022-11-05T09:23:18.966Z,9.46
2022-11-05T09:25:47.552Z,9.47
2022-11-05T09:28:18.475Z,9.44
2022-11-05T09:30:48.396Z,9.42
2022-11-05T09:33:17.129Z,9.42
2022-11-05T09:35:45.471Z,9.41
2022-11-05T09:38:13.814Z,9.40
2022-11-05T09:40:49.078Z,9.40
2022-11-05T09:43:21.597Z,9.40
2022-11-05T09:45:52.125Z,9.39
2022-11-05T09:48:24.803Z,9.43
2022-11-05T09:50:54.845Z,9.43
2022-11-05T09:53:24.982Z,9.43
2022-11-05T09:55:56.724Z,9.44
2022-11-05T09:58:36.618Z,9.39
2022-11-05T10:01:07.993Z,9.41
2022-11-05T10:03:43.751Z,9.40
2022-11-05T10:06:18.769Z,9.40
2022-11-05T10:08:50.432Z,9.40
2022-11-05T10:11:22.099Z,9.39
2022-11-05T10:13:56.324Z,9.38
2022-11-05T10:16:27.405Z,9.38
2022-11-05T10:19:04.207Z,9.39
2022-11-05T10:22:04.271Z,9.35
2022-11-05T10:24:22.305Z,9.37
2022-11-05T10:26:53.667Z,9.36
2022-11-05T10:29:27.578Z,9.35
2022-11-05T10:31:56.894Z,9.34
2022-11-05T10:34:33.353Z,9.34
2022-11-05T10:37:01.493Z,9.34
2022-11-05T10:39:32.364Z,9.35
2022-11-05T10:42:33.330Z,9.34
2022-11-05T10:45:13.036Z,9.32
2022-11-05T10:47:59.134Z,9.28
2022-11-05T10:50:28.793Z,9.29
2022-11-05T10:53:01.361Z,9.28
2022-11-05T10:55:32.174Z,9.28
2022-11-05T10:58:11.733Z,9.21
2022-11-05T11:00:41.294Z,9.18
2022-11-05T11:03:35.041Z,9.14
2022-11-05T11:06:04.996Z,9.10
2022-11-05T11:08:36.600Z,9.07
2022-11-05T11:11:07.546Z,9.06
2022-11-05T11:13:52.308Z,9.01
2022-11-05T11:16:24.031Z,8.99
2022-11-05T11:18:55.352Z,8.96
2022-11-05T11:21:24.295Z,8.95
2022-11-05T11:23:57.286Z,8.92
2022-11-05T11:26:26.671Z,8.90
2022-11-05T11:28:59.217Z,8.87
2022-11-05T11:31:31.762Z,8.87
2022-11-05T11:34:03.245Z,8.87
2022-11-05T11:36:36.315Z,8.85
2022-11-05T11:39:07.849Z,8.85
2022-11-05T11:41:39.453Z,8.85
2022-11-05T11:44:14.227Z,8.84
2022-11-05T11:46:48.489Z,8.83
2022-11-05T11:49:33.290Z,8.83
2022-11-05T11:52:04.556Z,8.81
2022-11-05T11:54:34.769Z,8.79
2022-11-05T11:57:02.813Z,8.80
2022-11-05T11:59:54.293Z,8.78
2022-11-05T12:02:55.992Z,8.75
2022-11-05T12:05:37.098Z,8.73
2022-11-05T12:08:17.655Z,8.70
2022-11-05T12:11:04.233Z,8.69
2022-11-05T12:14:11.020Z,8.69
2022-11-05T12:17:23.113Z,8.68
2022-11-05T12:20:23.387Z,8.66
2022-11-05T12:23:15.003Z,8.65
2022-11-05T12:25:49.703Z,8.65
2022-11-05T12:28:36.086Z,8.66
2022-11-05T12:31:13.448Z,8.66
2022-11-05T12:33:51.138Z,8.66
2022-11-05T12:36:36.195Z,8.65
2022-11-05T12:39:26.782Z,8.65
2022-11-05T12:42:01.419Z,8.61
2022-11-05T12:44:45.470Z,8.65
2022-11-05T12:47:25.320Z,8.64
2022-11-05T12:50:04.267Z,8.63
2022-11-05T12:53:00.352Z,8.61
2022-11-05T12:55:32.745Z,8.63
2022-11-05T12:58:09.628Z,8.63
2022-11-05T13:00:42.317Z,8.63
2022-11-05T13:03:25.847Z,8.62
2022-11-05T13:06:00.188Z,8.61
2022-11-05T13:08:38.089Z,8.61
2022-11-05T13:11:15.647Z,8.60
2022-11-05T13:13:48.955Z,8.61
2022-11-05T13:16:24.330Z,8.63
2022-11-05T13:18:54.983Z,8.61
2022-11-05T13:21:26.401Z,8.62
2022-11-05T13:24:05.181Z,8.62
2022-11-05T13:26:41.136Z,8.63
2022-11-05T13:29:14.345Z,8.61
2022-11-05T13:31:46.614Z,8.65
2022-11-05T13:34:14.831Z,8.65
2022-11-05T13:37:08.142Z,8.66
2022-11-05T13:39:42.881Z,8.64
2022-11-05T13:42:41.049Z,8.66
2022-11-05T13:45:33.324Z,8.67
2022-11-05T13:48:18.904Z,8.66
2022-11-05T13:51:10.064Z,8.64
2022-11-05T13:54:04.188Z,8.65
2022-11-05T13:56:55.141Z,8.65
2022-11-05T13:59:53.050Z,8.65
2022-11-05T14:02:24.659Z,8.61
2022-11-05T14:05:00.707Z,8.64
2022-11-05T14:07:31.581Z,8.65
2022-11-05T14:10:02.771Z,8.65
2022-11-05T14:12:35.677Z,8.67
2022-11-05T14:15:08.653Z,8.67
2022-11-05T14:17:56.028Z,8.68
2022-11-05T14:20:40.292Z,8.67
2022-11-05T14:23:47.728Z,8.68
2022-11-05T14:26:18.942Z,8.67
2022-11-05T14:28:53.032Z,8.68
2022-11-05T14:34:47.117Z,8.67
2022-11-05T14:37:33.351Z,8.66
2022-11-05T14:40:36.299Z,8.68
2022-11-05T14:43:08.327Z,8.68
2022-11-05T14:45:40.429Z,8.68
2022-11-05T14:48:27.040Z,8.68
2022-11-05T14:50:56.081Z,8.67
2022-11-05T14:53:33.275Z,8.69
2022-11-05T14:56:04.548Z,8.69
2022-11-05T14:58:35.485Z,8.70
2022-11-05T15:01:06.774Z,8.71
2022-11-05T15:04:00.759Z,8.72
2022-11-05T15:06:32.260Z,8.70
2022-11-05T15:09:27.882Z,8.70
2022-11-05T15:12:14.619Z,8.70
2022-11-05T15:14:54.329Z,8.70
2022-11-05T15:17:30.045Z,8.71
2022-11-05T15:20:10.241Z,8.72
2022-11-05T15:22:42.556Z,8.71
2022-11-05T15:25:19.041Z,8.73
2022-11-05T15:27:58.539Z,8.74
2022-11-05T15:30:26.823Z,8.73
2022-11-05T15:32:56.110Z,8.74
2022-11-05T15:35:27.991Z,8.74
2022-11-05T15:38:02.205Z,8.75
2022-11-05T15:40:32.515Z,8.74
2022-11-05T15:43:17.558Z,8.76
2022-11-05T15:45:59.363Z,8.75
2022-11-05T15:48:28.652Z,8.73
2022-11-05T15:50:57.047Z,8.76
2022-11-05T15:53:56.210Z,8.76
2022-11-05T15:56:26.152Z,8.77
2022-11-05T15:58:55.881Z,8.75
2022-11-05T16:01:30.074Z,8.78
2022-11-05T16:04:05.770Z,8.77
2022-11-05T16:06:40.093Z,8.77
2022-11-05T16:09:08.958Z,8.78
2022-11-05T16:11:36.829Z,8.79
2022-11-05T16:14:16.445Z,8.79
2022-11-05T16:16:45.043Z,8.77
2022-11-05T16:19:45.669Z,8.79
2022-11-05T16:22:13.623Z,8.78
2022-11-05T16:24:44.268Z,8.80
2022-11-05T16:27:19.467Z,8.81
2022-11-05T16:29:52.976Z,8.83
2022-11-05T16:32:29.727Z,8.81
2022-11-05T16:35:01.642Z,8.85
2022-11-05T16:37:36.848Z,8.85
2022-11-05T16:40:14.243Z,8.85
2022-11-05T16:42:42.700Z,8.85
2022-11-05T16:45:14.810Z,8.84
2022-11-05T16:47:43.782Z,8.85
2022-11-05T16:50:18.423Z,8.86
2022-11-05T16:52:47.251Z,8.86
2022-11-05T16:55:16.416Z,8.85
2022-11-05T16:57:46.234Z,8.88
2022-11-05T17:00:17.535Z,8.87
2022-11-05T17:02:47.120Z,8.86
2022-11-05T17:05:24.145Z,8.87
2022-11-05T17:07:53.762Z,8.88
2022-11-05T17:10:22.906Z,8.88
2022-11-05T17:12:51.396Z,8.91
2022-11-05T17:15:21.919Z,8.92
2022-11-05T17:17:50.292Z,8.92
2022-11-05T17:20:32.565Z,8.89
2022-11-05T17:23:05.574Z,8.89
2022-11-05T17:25:34.090Z,8.88
2022-11-05T17:28:02.765Z,8.88
2022-11-05T17:30:30.912Z,8.88
2022-11-05T17:32:59.242Z,8.89
2022-11-05T17:35:28.638Z,8.90
2022-11-05T17:37:56.566Z,8.90
2022-11-05T17:40:24.892Z,8.89
2022-11-05T17:42:54.624Z,8.82
2022-11-05T17:45:22.494Z,8.78
2022-11-05T17:47:50.373Z,8.78
2022-11-05T17:50:21.654Z,8.76
2022-11-05T17:52:51.247Z,8.75
2022-11-05T17:55:19.555Z,8.76
2022-11-05T17:57:48.930Z,8.78
2022-11-05T18:00:18.855Z,8.77
2022-11-05T18:02:51.233Z,8.75
2022-11-05T18:05:20.453Z,8.76
2022-11-05T18:07:50.439Z,8.77
2022-11-05T18:10:18.649Z,8.78
2022-11-05T18:12:46.540Z,8.79
2022-11-05T18:15:16.309Z,8.81
2022-11-05T18:17:45.616Z,8.80
2022-11-05T18:20:19.458Z,8.75
2022-11-05T18:22:47.743Z,8.76
2022-11-05T18:25:17.877Z,8.77
2022-11-05T18:27:46.109Z,8.78
2022-11-05T18:30:15.930Z,8.75
2022-11-05T18:32:44.310Z,8.73
2022-11-05T18:35:13.309Z,8.71
2022-11-05T18:37:41.876Z,8.70
2022-11-05T18:40:10.641Z,8.66
2022-11-05T18:42:39.927Z,8.64
2022-11-05T18:45:09.063Z,8.60
2022-11-05T18:47:37.454Z,8.51
2022-11-05T18:50:06.600Z,8.52
2022-11-05T18:52:34.565Z,8.51
2022-11-05T18:55:02.826Z,8.53
2022-11-05T18:57:30.902Z,8.52
2022-11-05T19:00:00.552Z,8.49
2022-11-05T19:02:28.574Z,8.46
2022-11-05T19:07:47.300Z,8.37
2022-11-05T19:10:15.586Z,8.37
2022-11-05T19:12:43.572Z,8.38
2022-11-05T19:15:13.134Z,8.40
2022-11-05T19:17:41.004Z,8.40
2022-11-05T19:20:10.211Z,8.41
2022-11-05T19:22:38.210Z,8.38
2022-11-05T19:25:08.010Z,8.39
2022-11-05T19:27:37.580Z,8.38
2022-11-05T19:30:06.471Z,8.37
2022-11-05T19:32:35.703Z,8.34
2022-11-05T19:35:04.130Z,8.28
2022-11-05T19:37:32.019Z,8.32
2022-11-05T19:39:59.900Z,8.35
2022-11-05T19:42:28.014Z,8.36
2022-11-05T19:44:55.884Z,8.37
2022-11-05T19:47:24.293Z,8.38
2022-11-05T19:49:53.605Z,8.38
2022-11-05T19:52:21.513Z,8.40
2022-11-05T19:54:49.454Z,8.45
2022-11-05T19:57:17.449Z,8.49
2022-11-05T19:59:45.325Z,8.50
2022-11-05T20:02:16.273Z,8.51
2022-11-05T20:04:44.902Z,8.51
2022-11-05T20:07:14.206Z,8.50
2022-11-05T20:09:42.167Z,8.53
2022-11-05T20:12:10.544Z,8.56
2022-11-05T20:14:38.507Z,8.57
2022-11-05T20:17:06.438Z,8.59
2022-11-05T20:19:35.442Z,8.59
2022-11-05T20:22:03.406Z,8.59
2022-11-05T20:24:32.685Z,8.59
2022-11-05T20:27:00.590Z,8.57
2022-11-05T20:29:34.996Z,8.52
2022-11-05T20:32:04.441Z,8.46
2022-11-05T20:34:34.056Z,8.43
2022-11-05T20:37:02.081Z,8.40
2022-11-05T20:39:29.975Z,8.39
2022-11-05T20:42:00.602Z,8.31
2022-11-05T20:44:29.008Z,8.32
2022-11-05T20:46:56.963Z,8.31
2022-11-05T20:49:25.779Z,8.34
2022-11-05T20:51:54.137Z,8.35
2022-11-05T20:54:22.122Z,8.36
2022-11-05T20:56:50.005Z,8.38
2022-11-05T20:59:19.882Z,8.39
2022-11-05T21:01:47.905Z,8.40
2022-11-05T21:04:15.934Z,8.43
2022-11-05T21:06:43.950Z,8.46
2022-11-05T21:09:12.729Z,8.47
2022-11-05T21:11:57.903Z,8.48
2022-11-05T21:14:27.178Z,8.48
2022-11-05T21:16:55.053Z,8.48
2022-11-05T21:19:26.254Z,8.50
2022-11-05T21:21:54.173Z,8.53
2022-11-05T21:24:22.067Z,8.52
2022-11-05T21:26:51.004Z,8.51
2022-11-05T21:29:19.578Z,8.53
2022-11-05T21:31:49.244Z,8.51
2022-11-05T21:34:17.996Z,8.51
2022-11-05T21:36:47.330Z,8.51
2022-11-05T21:39:15.281Z,8.51
2022-11-05T21:41:43.657Z,8.47
2022-11-05T21:44:11.824Z,8.48
2022-11-05T21:46:39.798Z,8.50
2022-11-05T21:49:09.513Z,8.52
2022-11-05T21:51:55.863Z,8.54
2022-11-05T21:54:41.318Z,8.55
2022-11-05T21:57:32.873Z,8.54
2022-11-05T22:00:01.849Z,8.54
2022-11-05T22:02:30.687Z,8.56
2022-11-05T22:05:00.265Z,8.55
2022-11-05T22:07:30.712Z,8.57
2022-11-05T22:09:58.656Z,8.55
2022-11-05T22:12:26.560Z,8.56
2022-11-05T22:14:54.615Z,8.56
2022-11-05T22:17:22.924Z,8.54
2022-11-05T22:19:51.043Z,8.50
2022-11-05T22:22:20.333Z,8.51
2022-11-05T22:24:48.281Z,8.54
2022-11-05T22:27:18.784Z,8.50
2022-11-05T22:29:47.429Z,8.52
2022-11-05T22:32:18.126Z,8.49
2022-11-05T22:34:46.173Z,8.46
2022-11-05T22:37:14.467Z,8.42
2022-11-05T22:39:43.798Z,8.40
2022-11-05T22:42:11.797Z,8.43
2022-11-05T22:44:39.733Z,8.44
2022-11-05T22:47:08.218Z,8.44
2022-11-05T22:49:39.142Z,8.39
2022-11-05T22:52:07.183Z,8.39
2022-11-05T22:54:38.997Z,8.40
2022-11-05T22:57:11.633Z,8.42
2022-11-05T22:59:39.568Z,8.42
2022-11-05T23:02:09.995Z,8.43
2022-11-05T23:04:39.172Z,8.46
2022-11-05T23:07:39.099Z,8.46
2022-11-05T23:10:27.898Z,8.47
2022-11-05T23:12:57.415Z,8.49
2022-11-05T23:15:42.078Z,8.54
2022-11-05T23:18:27.764Z,8.55
2022-11-05T23:21:13.229Z,8.53
2022-11-05T23:24:01.854Z,8.50
2022-11-05T23:26:46.878Z,8.45
2022-11-05T23:29:16.112Z,8.44
2022-11-05T23:32:01.170Z,8.41
2022-11-05T23:34:29.808Z,8.34
2022-11-05T23:37:15.443Z,8.35
2022-11-05T23:39:43.385Z,8.32
2022-11-05T23:42:29.380Z,8.37
2022-11-05T23:45:15.984Z,8.39
2022-11-05T23:48:01.502Z,8.44
2022-11-05T23:50:33.226Z,8.46
2022-11-05T23:53:05.207Z,8.45
2022-11-05T23:55:33.119Z,8.46
2022-11-05T23:58:01.565Z,8.46
